Time;durP1;ratioP1;P1;durP2;ratioP2;P2;SDS_P1;SDS_P2;PMS_P1;PMS_P2;Temp;Humidity;BMP_temperature;BMP_pressure;BME280_temperature;BME280_humidity;BME280_pressure;Samples;Min_cycle;Max_cycle;Signal;HPM_P1;HPM_P2
2023/07/24 00:00:10;;;;;;;7.50;5.20;;;21.30;1.00;;;;;;5008376;28;20190;-73
2023/07/24 00:02:36;;;;;;;10.77;6.30;;;21.30;1.00;;;;;;5010067;28;20189;-73
2023/07/24 00:05:01;;;;;;;9.13;5.30;;;21.20;1.00;;;;;;5009453;28;20807;-75
2023/07/24 00:07:27;;;;;;;10.63;5.60;;;21.20;1.00;;;;;;5008935;28;20291;-74
2023/07/24 00:09:52;;;;;;;9.90;6.10;;;21.20;1.00;;;;;;5010243;28;20617;-73
2023/07/24 00:12:18;;;;;;;9.40;6.10;;;21.20;1.00;;;;;;5009340;28;20182;-73
2023/07/24 00:14:43;;;;;;;9.30;5.97;;;21.20;1.00;;;;;;5008548;28;20189;-73
2023/07/24 00:17:09;;;;;;;8.67;5.50;;;21.20;1.00;;;;;;5008375;28;20217;-72
2023/07/24 00:19:34;;;;;;;10.97;6.20;;;21.20;1.00;;;;;;5009786;28;20201;-74
2023/07/24 00:22:00;;;;;;;8.03;5.33;;;21.20;1.00;;;;;;5008172;28;20758;-73
2023/07/24 00:24:25;;;;;;;8.03;5.63;;;21.30;1.00;;;;;;5009355;28;20319;-73
2023/07/24 00:26:51;;;;;;;8.63;5.73;;;21.20;1.00;;;;;;5009332;28;20193;-73
2023/07/24 00:29:16;;;;;;;10.30;6.10;;;21.20;1.00;;;;;;5007705;28;20232;-73
2023/07/24 00:31:42;;;;;;;14.07;6.23;;;21.10;1.00;;;;;;5005625;28;20178;-73
2023/07/24 00:34:07;;;;;;;7.80;5.70;;;21.10;1.00;;;;;;5004815;28;20308;-71
2023/07/24 00:36:33;;;;;;;8.67;5.70;;;21.10;1.00;;;;;;5008885;28;20212;-73
2023/07/24 00:38:58;;;;;;;11.53;6.60;;;21.00;1.00;;;;;;5007821;28;20220;-74
2023/07/24 00:41:24;;;;;;;7.70;5.57;;;21.00;1.00;;;;;;5005823;28;20195;-73
2023/07/24 00:43:49;;;;;;;7.47;5.20;;;20.90;1.00;;;;;;5007324;28;20675;-72
2023/07/24 00:46:15;;;;;;;8.67;5.97;;;20.80;1.00;;;;;;5007005;28;20194;-73
2023/07/24 00:48:40;;;;;;;8.57;5.50;;;20.80;1.00;;;;;;5008361;28;20276;-73
2023/07/24 00:51:06;;;;;;;9.83;5.50;;;20.80;1.00;;;;;;5008476;28;20192;-73
2023/07/24 00:53:32;;;;;;;8.20;5.33;;;20.70;1.00;;;;;;5007162;28;20253;-74
2023/07/24 00:55:57;;;;;;;8.80;5.60;;;20.70;1.00;;;;;;5007894;28;20182;-73
2023/07/24 00:58:23;;;;;;;9.37;6.60;;;20.70;1.00;;;;;;5004452;28;20927;-73
2023/07/24 01:00:50;;;;;;;11.60;6.50;;;20.70;1.00;;;;;;5009404;28;20217;-72
2023/07/24 01:03:15;;;;;;;10.73;6.50;;;20.70;1.00;;;;;;5008881;28;20189;-73
2023/07/24 01:05:41;;;;;;;10.10;6.30;;;20.60;1.00;;;;;;5006559;28;20459;-73
2023/07/24 01:08:07;;;;;;;9.13;6.10;;;20.50;1.00;;;;;;5008353;28;20209;-74
2023/07/24 01:10:33;;;;;;;8.90;6.07;;;20.60;1.00;;;;;;5007145;28;20237;-73
2023/07/24 01:13:22;;;;;;;8.90;5.80;;;20.50;1.00;;;;;;5007200;28;20436;-73
2023/07/24 01:15:54;;;;;;;9.17;5.83;;;20.60;1.00;;;;;;5005559;28;20200;-73
2023/07/24 01:18:23;;;;;;;9.40;6.17;;;20.50;1.00;;;;;;5007527;28;20491;-73
2023/07/24 01:20:54;;;;;;;9.17;6.10;;;20.50;1.00;;;;;;5008731;28;20436;-74
2023/07/24 01:23:55;;;;;;;10.47;6.57;;;20.70;1.00;;;;;;5006990;28;20555;-73
2023/07/24 01:26:23;;;;;;;9.87;5.97;;;20.70;1.00;;;;;;5006994;28;20923;-73
2023/07/24 01:28:49;;;;;;;8.17;5.90;;;20.80;1.00;;;;;;5007823;28;20555;-73
2023/07/24 01:31:16;;;;;;;8.27;5.77;;;20.80;1.00;;;;;;5006832;28;20679;-74
2023/07/24 01:33:42;;;;;;;9.90;6.10;;;20.90;1.00;;;;;;5007459;28;20675;-74
2023/07/24 01:36:08;;;;;;;9.40;6.53;;;20.70;1.00;;;;;;5008298;28;20445;-73
2023/07/24 01:38:35;;;;;;;9.93;6.20;;;20.70;1.00;;;;;;5005747;28;20225;-73
2023/07/24 01:41:02;;;;;;;9.73;6.10;;;20.80;1.00;;;;;;5008416;28;20437;-73
2023/07/24 01:43:29;;;;;;;9.30;5.93;;;20.80;1.00;;;;;;5006522;28;20448;-74
2023/07/24 01:45:55;;;;;;;11.17;6.23;;;20.90;1.00;;;;;;5006045;28;20677;-74
2023/07/24 01:48:20;;;;;;;9.33;6.23;;;20.90;1.00;;;;;;5006419;28;20918;-73
2023/07/24 01:50:46;;;;;;;8.27;6.03;;;21.00;1.00;;;;;;5007179;28;20257;-73
2023/07/24 01:53:11;;;;;;;8.20;5.40;;;20.90;1.00;;;;;;5008448;28;20260;-73
2023/07/24 01:55:37;;;;;;;8.80;5.60;;;20.90;1.00;;;;;;5008443;28;20184;-74
2023/07/24 01:58:03;;;;;;;10.03;6.17;;;20.90;1.00;;;;;;5010115;28;20607;-73
2023/07/24 02:00:28;;;;;;;9.00;6.00;;;20.90;1.00;;;;;;5011351;28;20182;-73
2023/07/24 02:02:54;;;;;;;9.60;6.87;;;22.40;1.00;;;;;;5010585;28;20189;-74
2023/07/24 02:05:19;;;;;;;9.60;5.87;;;20.80;1.00;;;;;;5011262;28;20618;-74
2023/07/24 02:07:45;;;;;;;13.40;6.30;;;20.70;1.00;;;;;;5011438;28;20218;-73
2023/07/24 02:10:10;;;;;;;10.27;6.47;;;20.60;1.00;;;;;;5009971;28;20182;-74
2023/07/24 02:12:36;;;;;;;10.43;7.00;;;20.50;1.00;;;;;;5009523;28;20217;-74
2023/07/24 02:15:02;;;;;;;9.33;6.20;;;20.40;1.00;;;;;;5009587;28;20603;-73
2023/07/24 02:17:27;;;;;;;10.10;6.90;;;20.40;1.00;;;;;;5008758;28;20213;-74
2023/07/24 02:19:53;;;;;;;11.30;6.70;;;20.50;1.00;;;;;;5008132;28;20226;-73
2023/07/24 02:22:18;;;;;;;13.83;6.93;;;20.50;1.00;;;;;;5009256;28;20232;-73
2023/07/24 02:24:44;;;;;;;10.07;6.10;;;20.60;1.00;;;;;;5007382;28;20297;-73
2023/07/24 02:27:14;;;;;;;9.90;6.90;;;20.70;1.00;;;;;;5010366;28;20437;-73
2023/07/24 02:29:39;;;;;;;13.23;7.37;;;20.70;1.00;;;;;;5008964;28;20216;-73
2023/07/24 02:32:05;;;;;;;11.33;6.73;;;20.70;1.00;;;;;;5008745;28;20472;-73
2023/07/24 02:34:30;;;;;;;13.10;7.17;;;20.60;1.00;;;;;;5009280;28;20193;-73
2023/07/24 02:36:56;;;;;;;9.30;6.70;;;20.50;1.00;;;;;;5010186;28;20218;-74
2023/07/24 02:39:21;;;;;;;8.33;6.30;;;20.50;1.00;;;;;;5009230;28;20237;-73
2023/07/24 02:41:48;;;;;;;13.83;7.30;;;20.30;1.00;;;;;;5009352;28;20182;-73
2023/07/24 02:44:14;;;;;;;9.53;6.27;;;20.30;1.00;;;;;;5007653;28;20253;-74
2023/07/24 02:46:39;;;;;;;8.53;5.90;;;20.40;1.00;;;;;;5008547;28;20539;-74
2023/07/24 02:49:05;;;;;;;8.97;6.17;;;20.40;1.00;;;;;;5009197;28;20729;-73
2023/07/24 02:51:31;;;;;;;10.70;6.27;;;20.40;1.00;;;;;;5010148;28;20205;-73
2023/07/24 02:53:57;;;;;;;11.13;5.90;;;20.40;1.00;;;;;;5008534;28;20560;-73
2023/07/24 02:56:22;;;;;;;11.30;6.00;;;20.50;1.00;;;;;;5010287;28;20209;-74
2023/07/24 02:58:48;;;;;;;10.10;5.80;;;20.50;1.00;;;;;;5007147;28;20229;-73
2023/07/24 03:01:14;;;;;;;8.50;5.53;;;20.60;1.00;;;;;;5008700;28;20548;-75
2023/07/24 03:03:40;;;;;;;9.33;6.50;;;20.60;1.00;;;;;;5009235;28;20182;-73
2023/07/24 03:06:06;;;;;;;9.47;6.23;;;20.70;1.00;;;;;;5010098;28;20525;-76
2023/07/24 03:08:32;;;;;;;9.80;5.97;;;20.70;1.00;;;;;;4972306;28;1029139;-73
2023/07/24 03:10:58;;;;;;;8.50;5.60;;;20.80;1.00;;;;;;5010719;28;20190;-74
2023/07/24 03:13:23;;;;;;;11.27;6.10;;;20.80;1.00;;;;;;5007735;28;20184;-72
2023/07/24 03:15:56;;;;;;;9.20;5.37;;;20.80;1.00;;;;;;5009584;28;20273;-73
2023/07/24 03:18:23;;;;;;;11.30;6.60;;;20.80;1.00;;;;;;5010067;28;20234;-73
2023/07/24 03:20:49;;;;;;;12.73;7.00;;;20.90;1.00;;;;;;5010806;28;20437;-74
2023/07/24 03:23:14;;;;;;;11.30;6.37;;;20.80;1.00;;;;;;5009592;28;20437;-74
2023/07/24 03:25:40;;;;;;;11.47;6.63;;;20.80;1.00;;;;;;5008495;28;20178;-73
2023/07/24 03:28:06;;;;;;;9.30;6.13;;;20.70;1.00;;;;;;5009416;28;20557;-74
2023/07/24 03:30:31;;;;;;;10.30;6.60;;;20.70;1.00;;;;;;5010354;28;20196;-73
2023/07/24 03:32:57;;;;;;;9.10;6.10;;;20.80;1.00;;;;;;5009883;28;20182;-74
2023/07/24 03:35:23;;;;;;;9.20;5.90;;;20.80;1.00;;;;;;5007832;28;20260;-74
2023/07/24 03:37:48;;;;;;;12.63;6.37;;;20.80;1.00;;;;;;5008339;28;20561;-73
2023/07/24 03:40:15;;;;;;;9.50;6.43;;;20.90;1.00;;;;;;5009048;28;20186;-73
2023/07/24 03:42:41;;;;;;;9.47;6.40;;;20.90;1.00;;;;;;5008327;28;20174;-73
2023/07/24 03:45:07;;;;;;;8.60;5.60;;;20.90;1.00;;;;;;5009331;28;20444;-74
2023/07/24 03:47:32;;;;;;;10.30;6.63;;;20.90;1.00;;;;;;5008097;28;20209;-73
2023/07/24 03:49:58;;;;;;;9.30;6.20;;;20.90;1.00;;;;;;5010287;28;20982;-74
2023/07/24 03:52:23;;;;;;;11.77;6.40;;;20.80;1.00;;;;;;5010221;28;20193;-73
2023/07/24 03:54:49;;;;;;;11.30;6.87;;;20.90;1.00;;;;;;5009378;28;20182;-73
2023/07/24 03:57:14;;;;;;;10.50;7.07;;;20.80;1.00;;;;;;5008534;28;20213;-73
2023/07/24 03:59:40;;;;;;;10.80;6.80;;;20.80;1.00;;;;;;5008943;28;20197;-73
2023/07/24 04:02:06;;;;;;;11.67;6.63;;;20.80;1.00;;;;;;5009423;28;20269;-73
2023/07/24 04:04:32;;;;;;;8.70;6.07;;;20.80;1.00;;;;;;5009106;28;20174;-74
2023/07/24 04:06:58;;;;;;;8.70;6.10;;;20.70;1.00;;;;;;5009545;28;20229;-74
2023/07/24 04:09:23;;;;;;;9.17;6.23;;;20.70;1.00;;;;;;5009321;28;20546;-73
2023/07/24 04:11:49;;;;;;;12.20;6.30;;;20.80;1.00;;;;;;5008980;28;20182;-74
2023/07/24 04:14:14;;;;;;;9.10;6.40;;;20.80;1.00;;;;;;5009130;28;20597;-74
2023/07/24 04:16:40;;;;;;;11.63;6.17;;;20.90;1.00;;;;;;5006541;28;20202;-71
2023/07/24 04:19:05;;;;;;;12.37;6.50;;;20.90;1.00;;;;;;5009193;28;20189;-74
2023/07/24 04:21:31;;;;;;;10.20;6.40;;;21.00;1.00;;;;;;5007076;28;20277;-73
2023/07/24 04:23:56;;;;;;;10.47;6.47;;;21.00;1.00;;;;;;5009159;28;20784;-74
2023/07/24 04:26:22;;;;;;;8.80;6.07;;;21.00;1.00;;;;;;5009371;28;20538;-74
2023/07/24 04:28:47;;;;;;;12.23;6.87;;;21.00;1.00;;;;;;5005705;28;20225;-74
2023/07/24 04:31:13;;;;;;;14.23;6.97;;;21.10;1.00;;;;;;5006750;28;20178;-73
2023/07/24 04:33:39;;;;;;;11.20;6.70;;;21.10;1.00;;;;;;5006865;28;20240;-74
2023/07/24 04:36:05;;;;;;;10.63;6.50;;;21.10;1.00;;;;;;5009213;28;20182;-73
2023/07/24 04:38:30;;;;;;;12.10;6.80;;;21.20;1.00;;;;;;5007775;28;20476;-71
2023/07/24 04:40:56;;;;;;;11.80;7.00;;;21.20;1.00;;;;;;5009969;28;20220;-73
2023/07/24 04:43:21;;;;;;;9.50;6.60;;;21.10;1.00;;;;;;5009058;28;20582;-73
2023/07/24 04:45:47;;;;;;;11.50;7.10;;;21.10;1.00;;;;;;5006887;28;20589;-74
2023/07/24 04:48:12;;;;;;;12.93;7.23;;;21.10;1.00;;;;;;5006726;28;20206;-73
2023/07/24 04:50:38;;;;;;;11.23;6.90;;;21.20;1.00;;;;;;5007391;28;20182;-73
2023/07/24 04:53:03;;;;;;;12.00;7.13;;;21.20;1.00;;;;;;5008203;28;20186;-73
2023/07/24 04:55:29;;;;;;;13.20;7.60;;;21.30;1.00;;;;;;5005767;28;20189;-73
2023/07/24 04:57:54;;;;;;;11.43;7.40;;;21.30;1.00;;;;;;5007554;28;20893;-73
2023/07/24 05:00:20;;;;;;;12.47;7.30;;;21.30;1.00;;;;;;5006557;28;20182;-74
2023/07/24 05:02:45;;;;;;;11.00;6.90;;;21.40;1.00;;;;;;5007622;28;20190;-74
2023/07/24 05:05:11;;;;;;;10.97;7.50;;;21.50;1.00;;;;;;5009103;28;20639;-74
2023/07/24 05:07:36;;;;;;;11.90;6.70;;;21.50;1.00;;;;;;5006561;28;20340;-73
2023/07/24 05:10:02;;;;;;;12.90;6.80;;;21.50;1.00;;;;;;5008246;28;20565;-74
2023/07/24 05:12:28;;;;;;;11.73;7.07;;;21.60;1.00;;;;;;5008207;28;20190;-75
2023/07/24 05:14:53;;;;;;;12.80;7.27;;;21.60;1.00;;;;;;5007295;28;20252;-73
2023/07/24 05:17:19;;;;;;;10.87;7.00;;;21.70;1.00;;;;;;5007638;28;20212;-73
2023/07/24 05:19:44;;;;;;;11.73;7.40;;;21.80;1.00;;;;;;5005541;28;20734;-73
2023/07/24 05:22:10;;;;;;;13.17;7.40;;;21.80;1.00;;;;;;5007080;28;20180;-74
2023/07/24 05:24:36;;;;;;;12.03;7.43;;;21.80;1.00;;;;;;5005045;28;20184;-73
2023/07/24 05:27:03;;;;;;;11.80;7.90;;;21.90;1.00;;;;;;5008867;28;20296;-73
2023/07/24 05:29:29;;;;;;;9.93;6.80;;;21.90;1.00;;;;;;5005850;28;20507;-73
2023/07/24 05:31:54;;;;;;;10.17;6.80;;;21.90;1.00;;;;;;5011754;28;20765;-74
2023/07/24 05:34:20;;;;;;;11.50;7.27;;;21.90;1.00;;;;;;5013049;28;20182;-74
2023/07/24 05:36:45;;;;;;;11.50;7.20;;;21.90;1.00;;;;;;5012384;28;20205;-74
2023/07/24 05:39:11;;;;;;;10.90;6.97;;;21.90;1.00;;;;;;5013219;28;20181;-74
2023/07/24 05:41:36;;;;;;;11.00;7.50;;;21.90;1.00;;;;;;5012855;28;20411;-71
2023/07/24 05:44:02;;;;;;;13.20;7.60;;;21.90;1.00;;;;;;5012618;28;20676;-74
2023/07/24 05:46:27;;;;;;;10.47;7.17;;;22.00;1.00;;;;;;5012969;28;20277;-74
2023/07/24 05:48:53;;;;;;;11.37;7.33;;;22.00;1.00;;;;;;5011698;28;20932;-74
2023/07/24 05:51:18;;;;;;;12.13;7.83;;;22.00;1.00;;;;;;5013234;28;20183;-72
2023/07/24 05:53:44;;;;;;;13.03;7.63;;;22.00;1.00;;;;;;5012535;28;20261;-73
2023/07/24 05:56:09;;;;;;;16.70;8.20;;;22.00;1.00;;;;;;5012676;28;20298;-72
2023/07/24 05:58:35;;;;;;;13.57;7.50;;;22.00;1.00;;;;;;5012645;28;20267;-73
2023/07/24 06:01:00;;;;;;;12.67;6.40;;;21.90;1.00;;;;;;5011184;28;20182;-73
2023/07/24 06:03:26;;;;;;;11.70;7.43;;;21.90;1.00;;;;;;5012486;28;20243;-74
2023/07/24 06:05:55;;;;;;;12.20;7.50;;;22.00;1.00;;;;;;5011297;28;20194;-73
2023/07/24 06:08:21;;;;;;;12.33;7.43;;;22.00;1.00;;;;;;5012624;28;20217;-74
2023/07/24 06:10:48;;;;;;;11.93;7.33;;;22.00;1.00;;;;;;5010860;28;20527;-73
2023/07/24 06:13:17;;;;;;;11.03;7.57;;;22.10;1.00;;;;;;5012251;28;21042;-73
2023/07/24 06:15:43;;;;;;;11.13;7.33;;;21.90;1.00;;;;;;5024279;28;20431;-73
2023/07/24 06:18:09;;;;;;;11.83;7.87;;;22.00;1.00;;;;;;5012530;28;20467;-74
2023/07/24 06:20:35;;;;;;;11.50;8.20;;;21.90;1.00;;;;;;5012505;28;20265;-74
2023/07/24 06:23:00;;;;;;;11.83;7.20;;;22.00;1.00;;;;;;5012063;28;20512;-73
2023/07/24 06:25:26;;;;;;;13.30;7.90;;;22.00;1.00;;;;;;5016439;28;20186;-73
2023/07/24 06:27:51;;;;;;;13.70;8.20;;;22.10;1.00;;;;;;5011300;28;20209;-73
2023/07/24 06:30:17;;;;;;;13.07;7.73;;;22.10;1.00;;;;;;5011847;28;20204;-72
2023/07/24 06:32:43;;;;;;;10.03;6.70;;;22.10;1.00;;;;;;5011160;28;20186;-72
2023/07/24 06:35:08;;;;;;;12.43;8.37;;;22.20;1.00;;;;;;5011911;28;20202;-73
2023/07/24 06:37:34;;;;;;;13.20;8.03;;;22.30;1.00;;;;;;5011835;28;20500;-73
2023/07/24 06:40:00;;;;;;;13.30;7.87;;;22.30;1.00;;;;;;5011437;28;20209;-73
2023/07/24 06:42:25;;;;;;;11.97;7.50;;;22.30;1.00;;;;;;5011506;28;20649;-73
2023/07/24 06:44:51;;;;;;;14.23;8.00;;;22.30;1.00;;;;;;5011312;28;20269;-72
2023/07/24 06:47:16;;;;;;;11.13;8.20;;;22.40;1.00;;;;;;5011076;28;20202;-72
2023/07/24 06:49:42;;;;;;;10.57;7.50;;;22.60;1.00;;;;;;5010940;28;20244;-73
2023/07/24 06:52:07;;;;;;;13.00;7.40;;;22.60;1.00;;;;;;5011891;28;20268;-74
2023/07/24 06:54:33;;;;;;;12.30;7.77;;;22.70;1.00;;;;;;5011115;28;20587;-73
2023/07/24 06:56:58;;;;;;;15.20;8.03;;;22.80;1.00;;;;;;5010963;28;20213;-73
2023/07/24 06:59:24;;;;;;;14.27;8.17;;;22.80;1.00;;;;;;5011483;28;20579;-73
2023/07/24 07:01:49;;;;;;;13.30;8.43;;;23.00;1.00;;;;;;5011377;28;20190;-73
2023/07/24 07:04:15;;;;;;;17.00;8.40;;;23.10;1.00;;;;;;5011488;28;20186;-74
2023/07/24 07:06:41;;;;;;;15.90;8.30;;;23.00;1.00;;;;;;5009307;28;20186;-71
2023/07/24 07:09:06;;;;;;;18.47;7.90;;;23.10;1.00;;;;;;5010627;28;20451;-73
2023/07/24 07:11:32;;;;;;;12.27;8.00;;;22.90;1.00;;;;;;5011682;28;20217;-73
2023/07/24 07:13:57;;;;;;;14.37;8.30;;;22.70;1.00;;;;;;5010158;28;20718;-73
2023/07/24 07:16:23;;;;;;;16.23;8.80;;;22.80;1.00;;;;;;5010590;28;20188;-72
2023/07/24 07:18:49;;;;;;;15.80;8.63;;;22.90;1.00;;;;;;5007947;28;20694;-73
2023/07/24 07:21:14;;;;;;;16.00;8.73;;;22.90;1.00;;;;;;5011595;28;20517;-72
2023/07/24 07:23:40;;;;;;;12.53;8.00;;;22.90;1.00;;;;;;5010678;28;20188;-73
2023/07/24 07:26:05;;;;;;;15.50;7.70;;;22.90;1.00;;;;;;5013092;28;20178;-73
2023/07/24 07:28:31;;;;;;;18.03;8.23;;;22.90;1.00;;;;;;5009568;28;20293;-73
2023/07/24 07:30:56;;;;;;;14.27;8.33;;;23.20;1.00;;;;;;5010613;28;20192;-72
2023/07/24 07:33:22;;;;;;;16.10;9.20;;;23.50;1.00;;;;;;5010867;28;20190;-74
2023/07/24 07:35:48;;;;;;;15.53;8.20;;;23.70;1.00;;;;;;5009896;28;20178;-73
2023/07/24 07:38:13;;;;;;;14.07;8.57;;;24.10;1.00;;;;;;5011056;28;20213;-74
2023/07/24 07:40:39;;;;;;;12.80;7.97;;;24.10;1.00;;;;;;5011287;28;20548;-73
2023/07/24 07:43:05;;;;;;;11.97;8.00;;;24.00;1.00;;;;;;5010399;28;20182;-74
2023/07/24 07:45:30;;;;;;;13.50;8.77;;;23.60;1.00;;;;;;5011918;28;20710;-73
2023/07/24 07:47:56;;;;;;;16.60;8.80;;;23.80;1.00;;;;;;5011704;28;20213;-73
2023/07/24 07:50:21;;;;;;;13.33;8.37;;;23.80;1.00;;;;;;5010970;28;20182;-73
2023/07/24 07:52:51;;;;;;;22.97;8.53;;;23.80;1.00;;;;;;5010276;28;20277;-74
2023/07/24 07:55:20;;;;;;;12.87;8.97;;;23.90;1.00;;;;;;5005889;28;20186;-73
2023/07/24 07:57:45;;;;;;;14.23;8.40;;;23.90;1.00;;;;;;5010984;28;20507;-73
2023/07/24 08:00:11;;;;;;;10.80;7.60;;;23.90;1.00;;;;;;5008149;28;20960;-73
2023/07/24 08:02:39;;;;;;;15.17;8.77;;;23.80;1.00;;;;;;5009045;28;20182;-71
2023/07/24 08:05:09;;;;;;;14.00;8.60;;;23.90;1.00;;;;;;5008565;28;20178;-72
2023/07/24 08:07:35;;;;;;;13.10;7.90;;;24.00;1.00;;;;;;5009051;28;20518;-72
2023/07/24 08:10:01;;;;;;;11.70;7.80;;;24.00;1.00;;;;;;5005820;28;20472;-73
2023/07/24 08:12:27;;;;;;;13.57;8.40;;;24.00;1.00;;;;;;5008569;28;20232;-72
2023/07/24 08:14:52;;;;;;;13.57;8.67;;;24.10;1.00;;;;;;5007697;28;20460;-73
2023/07/24 08:17:18;;;;;;;14.83;8.73;;;24.20;1.00;;;;;;5007712;28;20213;-72
2023/07/24 08:19:43;;;;;;;12.67;8.50;;;24.30;1.00;;;;;;5005107;28;20178;-74
2023/07/24 08:22:09;;;;;;;10.57;7.80;;;24.30;1.00;;;;;;5009378;28;20177;-72
2023/07/24 08:24:35;;;;;;;17.47;8.43;;;24.20;1.00;;;;;;5006598;28;20268;-73
2023/07/24 08:27:01;;;;;;;13.70;8.30;;;24.20;1.00;;;;;;5007528;28;20259;-73
2023/07/24 08:29:26;;;;;;;13.30;8.27;;;24.00;1.00;;;;;;5005790;28;20456;-73
2023/07/24 08:31:52;;;;;;;14.27;8.90;;;24.00;1.00;;;;;;5008699;28;20456;-72
2023/07/24 08:34:18;;;;;;;14.03;8.23;;;23.80;1.00;;;;;;5007836;28;20186;-72
2023/07/24 08:36:43;;;;;;;16.47;8.63;;;24.00;1.00;;;;;;5009077;28;20613;-71
2023/07/24 08:39:09;;;;;;;11.70;8.37;;;24.00;1.00;;;;;;5009022;28;20185;-71
2023/07/24 08:41:35;;;;;;;12.27;8.47;;;23.90;1.00;;;;;;5010028;28;20689;-72
2023/07/24 08:44:01;;;;;;;12.37;8.17;;;24.00;1.00;;;;;;5009943;28;20617;-72
2023/07/24 08:46:28;;;;;;;12.20;8.20;;;23.90;1.00;;;;;;5006139;28;20878;-72
2023/07/24 08:48:55;;;;;;;12.90;9.20;;;23.80;1.00;;;;;;5006252;28;20460;-72
2023/07/24 08:51:22;;;;;;;13.17;8.67;;;24.00;1.00;;;;;;5007704;28;20580;-72
2023/07/24 08:53:48;;;;;;;13.70;8.53;;;24.20;1.00;;;;;;5005089;28;20471;-70
2023/07/24 08:56:14;;;;;;;13.27;8.83;;;25.00;1.00;;;;;;5007691;28;20435;-73
2023/07/24 08:58:40;;;;;;;12.53;8.00;;;25.70;1.00;;;;;;5009326;28;20511;-73
2023/07/24 09:01:07;;;;;;;11.60;7.93;;;25.80;1.00;;;;;;5003341;28;20440;-70
2023/07/24 09:03:33;;;;;;;11.20;7.80;;;26.10;1.00;;;;;;5006014;28;20461;-71
2023/07/24 09:06:01;;;;;;;15.00;8.67;;;26.50;1.00;;;;;;5005850;28;20441;-73
2023/07/24 09:08:40;;;;;;;13.00;7.80;;;26.20;1.00;;;;;;5005295;28;20858;-73
2023/07/24 09:11:07;;;;;;;12.47;9.00;;;25.90;1.00;;;;;;5008574;28;20458;-73
2023/07/24 09:13:35;;;;;;;10.50;7.40;;;25.50;1.00;;;;;;5006886;28;20476;-73
2023/07/24 09:16:00;;;;;;;13.53;8.13;;;25.30;1.00;;;;;;5006514;28;20812;-74
2023/07/24 09:18:27;;;;;;;12.00;7.70;;;25.10;1.00;;;;;;5008787;28;20463;-72
2023/07/24 09:20:52;;;;;;;12.57;7.80;;;25.00;1.00;;;;;;5008557;28;20178;-73
2023/07/24 09:23:30;;;;;;;12.80;8.53;;;24.80;1.00;;;;;;5009264;28;21004;-72
2023/07/24 09:25:55;;;;;;;12.93;7.50;;;24.70;1.00;;;;;;5010707;28;20188;-73
2023/07/24 09:28:21;;;;;;;10.20;7.60;;;24.80;1.00;;;;;;5006675;28;20472;-72
2023/07/24 09:30:55;;;;;;;13.00;8.07;;;25.20;1.00;;;;;;5012297;28;20185;-73
2023/07/24 09:33:38;;;;;;;13.43;8.13;;;25.50;1.00;;;;;;5002988;28;20300;-71
2023/07/24 09:36:07;;;;;;;14.60;8.03;;;26.00;1.00;;;;;;5004315;28;20451;-73
2023/07/24 09:38:32;;;;;;;16.10;8.40;;;26.50;1.00;;;;;;5008892;28;20467;-74
2023/07/24 09:40:58;;;;;;;13.07;8.13;;;26.80;1.00;;;;;;5005637;28;21054;-72
2023/07/24 09:43:25;;;;;;;13.07;7.83;;;26.80;1.00;;;;;;5004142;28;20281;-72
2023/07/24 09:45:52;;;;;;;11.73;7.30;;;26.40;1.00;;;;;;5004418;28;20273;-71
2023/07/24 09:48:18;;;;;;;12.07;7.90;;;26.20;1.00;;;;;;5003216;28;20461;-72
2023/07/24 09:50:46;;;;;;;9.17;7.17;;;26.00;1.00;;;;;;5000470;28;20959;-72
2023/07/24 09:53:26;;;;;;;12.20;6.97;;;26.00;1.00;;;;;;5000216;28;20454;-70
2023/07/24 09:56:00;;;;;;;12.40;7.67;;;25.90;1.00;;;;;;5006146;28;20865;-72
2023/07/24 09:58:26;;;;;;;14.63;7.30;;;25.50;1.00;;;;;;5004490;28;20464;-74
2023/07/24 10:00:55;;;;;;;12.10;7.60;;;25.60;1.00;;;;;;5001637;28;20472;-73
2023/07/24 10:03:22;;;;;;;9.70;6.90;;;25.50;1.00;;;;;;5002510;28;20233;-73
2023/07/24 10:05:50;;;;;;;14.83;7.77;;;25.20;1.00;;;;;;5006120;28;20429;-73
2023/07/24 10:08:16;;;;;;;11.50;7.40;;;25.10;1.00;;;;;;5004496;28;20467;-73
2023/07/24 10:10:42;;;;;;;12.03;7.57;;;24.90;1.00;;;;;;5010885;28;20432;-74
2023/07/24 10:13:10;;;;;;;10.97;7.37;;;25.00;1.00;;;;;;5011424;28;20431;-72
2023/07/24 10:15:37;;;;;;;9.63;7.07;;;24.80;1.00;;;;;;5009270;28;20190;-74
2023/07/24 10:18:05;;;;;;;13.43;7.50;;;24.80;1.00;;;;;;5012091;28;20475;-70
2023/07/24 10:20:35;;;;;;;13.10;7.30;;;24.90;1.00;;;;;;5012494;28;20523;-73
2023/07/24 10:23:03;;;;;;;11.17;6.77;;;24.90;1.00;;;;;;5013868;28;20818;-74
2023/07/24 10:25:34;;;;;;;10.30;6.90;;;24.80;1.00;;;;;;5006947;28;20416;-74
2023/07/24 10:28:07;;;;;;;11.30;7.20;;;24.70;1.00;;;;;;5012379;28;20440;-72
2023/07/24 10:30:40;;;;;;;10.40;7.00;;;24.70;1.00;;;;;;5007403;28;20569;-73
2023/07/24 10:33:07;;;;;;;12.00;7.27;;;24.70;1.00;;;;;;5006810;28;20429;-73
2023/07/24 10:35:41;;;;;;;12.37;7.43;;;24.60;1.00;;;;;;5012628;28;20522;-73
2023/07/24 10:38:06;;;;;;;13.93;8.03;;;24.70;1.00;;;;;;5010136;28;20475;-73
2023/07/24 10:40:33;;;;;;;13.80;7.30;;;24.70;1.00;;;;;;5008044;28;20444;-74
2023/07/24 10:43:09;;;;;;;11.10;6.97;;;24.30;1.00;;;;;;5008023;28;20174;-73
2023/07/24 10:45:48;;;;;;;12.17;7.70;;;24.50;1.00;;;;;;5008532;28;20440;-73
2023/07/24 10:48:15;;;;;;;9.37;6.80;;;24.40;1.00;;;;;;5012762;28;20433;-73
2023/07/24 10:50:43;;;;;;;9.77;7.00;;;24.50;1.00;;;;;;5012141;28;21089;-73
2023/07/24 10:53:09;;;;;;;10.53;7.20;;;24.60;1.00;;;;;;5010922;28;20433;-71
2023/07/24 10:55:35;;;;;;;11.53;6.87;;;24.70;1.00;;;;;;5006496;28;20453;-72
2023/07/24 10:58:01;;;;;;;13.13;7.43;;;24.80;1.00;;;;;;5011598;28;20487;-73
2023/07/24 11:00:27;;;;;;;11.47;7.57;;;24.80;1.00;;;;;;5010693;28;20667;-74
2023/07/24 11:02:54;;;;;;;10.83;7.40;;;24.70;1.00;;;;;;5011710;28;20184;-73
2023/07/24 11:05:23;;;;;;;12.07;7.07;;;24.60;1.00;;;;;;5010404;28;20456;-73
2023/07/24 11:07:49;;;;;;;14.20;8.00;;;24.50;1.00;;;;;;5009731;28;20480;-73
2023/07/24 11:10:19;;;;;;;10.93;7.97;;;24.40;1.00;;;;;;5009226;28;20448;-73
2023/07/24 11:12:45;;;;;;;9.90;6.63;;;24.50;1.00;;;;;;5008508;28;20947;-73
2023/07/24 11:15:12;;;;;;;15.80;7.67;;;24.60;1.00;;;;;;5007977;28;20460;-72
2023/07/24 11:17:42;;;;;;;12.07;7.10;;;24.90;1.00;;;;;;5008069;28;20217;-73
2023/07/24 11:20:09;;;;;;;9.80;6.30;;;25.30;1.00;;;;;;5006674;28;20516;-71
2023/07/24 11:22:34;;;;;;;10.90;7.00;;;25.70;1.00;;;;;;5009580;28;20945;-73
2023/07/24 11:25:01;;;;;;;12.37;7.60;;;25.90;1.00;;;;;;5008279;28;20444;-74
2023/07/24 11:27:27;;;;;;;11.20;6.70;;;25.90;1.00;;;;;;5004934;28;20236;-74
2023/07/24 11:29:52;;;;;;;12.20;7.87;;;25.90;1.00;;;;;;5008253;28;20491;-73
2023/07/24 11:32:21;;;;;;;10.83;7.37;;;25.80;1.00;;;;;;5003038;28;20182;-74
2023/07/24 11:34:49;;;;;;;10.10;6.50;;;26.00;1.00;;;;;;5009275;28;20189;-73
2023/07/24 11:37:16;;;;;;;10.67;6.93;;;26.10;1.00;;;;;;5007397;28;20464;-75
2023/07/24 11:39:41;;;;;;;10.43;7.00;;;26.10;1.00;;;;;;5022084;28;20444;-73
2023/07/24 11:42:07;;;;;;;14.23;7.13;;;26.20;1.00;;;;;;5009353;28;20436;-74
2023/07/24 11:44:33;;;;;;;9.73;6.50;;;26.30;1.00;;;;;;5006453;28;20786;-75
2023/07/24 11:47:03;;;;;;;11.83;6.50;;;26.30;1.00;;;;;;5008429;28;20685;-73
2023/07/24 11:49:32;;;;;;;9.57;7.33;;;26.10;1.00;;;;;;5006625;28;20317;-73
2023/07/24 11:52:05;;;;;;;13.90;7.23;;;25.90;1.00;;;;;;5005860;28;20436;-74
2023/07/24 11:54:33;;;;;;;10.43;6.80;;;25.80;1.00;;;;;;5007040;28;20460;-73
2023/07/24 11:56:59;;;;;;;11.30;6.90;;;25.60;1.00;;;;;;5006178;28;20469;-73
2023/07/24 11:59:24;;;;;;;9.33;6.53;;;25.80;1.00;;;;;;5006778;28;20962;-74
2023/07/24 12:01:50;;;;;;;10.77;6.80;;;25.30;1.00;;;;;;5004522;28;20193;-74
2023/07/24 12:04:16;;;;;;;11.00;7.37;;;25.30;1.00;;;;;;5003821;28;20194;-73
2023/07/24 12:06:42;;;;;;;10.30;7.37;;;25.60;1.00;;;;;;5005975;28;20178;-75
2023/07/24 12:09:08;;;;;;;9.97;7.00;;;25.50;1.00;;;;;;5006723;28;20193;-72
2023/07/24 12:11:38;;;;;;;9.70;6.87;;;25.70;1.00;;;;;;5008627;28;20189;-74
2023/07/24 12:14:04;;;;;;;11.20;7.83;;;25.90;1.00;;;;;;5007469;28;20198;-72
2023/07/24 12:16:30;;;;;;;11.60;7.67;;;26.00;1.00;;;;;;5004677;28;20441;-72
2023/07/24 12:18:56;;;;;;;11.90;7.87;;;26.20;1.00;;;;;;5008582;28;20209;-73
2023/07/24 12:21:21;;;;;;;11.17;7.00;;;25.70;1.00;;;;;;5005298;28;20433;-73
2023/07/24 12:23:47;;;;;;;9.10;6.80;;;25.30;1.00;;;;;;5006145;28;20209;-74
2023/07/24 12:26:12;;;;;;;17.23;7.53;;;25.20;1.00;;;;;;5005804;28;20190;-73
2023/07/24 12:28:38;;;;;;;10.57;6.97;;;25.00;1.00;;;;;;5003519;28;20340;-73
2023/07/24 12:31:04;;;;;;;10.70;7.40;;;24.50;1.00;;;;;;5005281;28;20182;-72
2023/07/24 12:33:29;;;;;;;10.10;6.87;;;24.30;1.00;;;;;;5003729;28;20221;-73
2023/07/24 12:35:55;;;;;;;10.80;7.67;;;24.10;1.00;;;;;;5006936;28;20476;-73
2023/07/24 12:38:20;;;;;;;15.97;7.17;;;24.40;1.00;;;;;;5005226;28;20216;-73
2023/07/24 12:40:46;;;;;;;11.80;7.80;;;24.80;1.00;;;;;;5005829;28;20181;-73
2023/07/24 12:43:11;;;;;;;10.17;7.10;;;24.90;1.00;;;;;;5004884;28;20529;-73
2023/07/24 12:45:37;;;;;;;12.03;7.57;;;24.70;1.00;;;;;;5007042;28;20182;-73